createdAt,value
2019-02-16T00:01:29.518Z,99829.95
2019-02-16T00:03:59.102Z,99831.75
2019-02-16T00:06:37.696Z,99834.14
2019-02-16T00:09:10.396Z,99832.05
2019-02-16T00:11:45.894Z,99835.78
2019-02-16T00:14:15.449Z,99833.36
2019-02-16T00:16:45.022Z,99828.24
2019-02-16T00:19:14.622Z,99833.69
2019-02-16T00:21:44.207Z,99828.71
2019-02-16T00:24:13.809Z,99829.09
2019-02-16T00:26:44.274Z,99827.81
2019-02-16T00:29:13.836Z,99830.80
2019-02-16T00:31:43.389Z,99831.38
2019-02-16T00:34:13.065Z,99833.81
2019-02-16T00:36:42.641Z,99829.41
2019-02-16T00:39:12.204Z,99827.97
2019-02-16T00:41:41.806Z,99828.80
2019-02-16T00:44:11.409Z,99826.30
2019-02-16T00:46:40.977Z,99828.97
2019-02-16T00:49:10.571Z,99827.74
2019-02-16T00:51:40.139Z,99834.90
2019-02-16T00:54:09.701Z,99827.90
2019-02-16T00:56:39.293Z,99822.88
2019-02-16T00:59:08.877Z,99823.69
2019-02-16T01:01:38.482Z,99820.80
2019-02-16T01:04:08.073Z,99823.97
2019-02-16T01:06:37.656Z,99822.92
2019-02-16T01:09:07.775Z,99824.72
2019-02-16T01:11:37.355Z,99824.22
2019-02-16T01:14:06.948Z,99821.21
2019-02-16T01:16:36.507Z,99825.31
2019-02-16T01:19:07.472Z,99825.73
2019-02-16T01:21:37.027Z,99829.06
2019-02-16T01:24:06.790Z,99829.03
2019-02-16T01:26:36.393Z,99830.98
2019-02-16T01:29:06.137Z,99831.19
2019-02-16T01:31:35.699Z,99828.93
2019-02-16T01:34:05.440Z,99830.78
2019-02-16T01:36:35.009Z,99828.02
2019-02-16T01:39:05.908Z,99827.01
2019-02-16T01:41:35.479Z,99823.09
2019-02-16T01:44:06.093Z,99819.46
2019-02-16T01:46:35.694Z,99816.41
2019-02-16T01:49:05.547Z,99808.51
2019-02-16T01:51:35.132Z,99804.41
2019-02-16T01:54:05.050Z,99801.65
2019-02-16T01:56:34.641Z,99797.53
2019-02-16T01:59:04.224Z,99801.72
2019-02-16T02:01:33.767Z,99800.77
2019-02-16T02:04:03.375Z,99798.16
2019-02-16T02:06:33.191Z,99796.88
2019-02-16T02:09:04.612Z,99793.72
2019-02-16T02:11:34.224Z,99790.57
2019-02-16T02:14:03.844Z,99791.34
2019-02-16T02:16:33.407Z,99788.90
2019-02-16T02:19:03.019Z,99782.05
2019-02-16T02:21:40.647Z,99778.67
2019-02-16T02:24:03.918Z,99775.64
2019-02-16T02:26:33.502Z,99778.88
2019-02-16T02:29:03.128Z,99779.71
2019-02-16T02:31:46.042Z,99778.04
2019-02-16T02:34:15.637Z,99785.66
2019-02-16T02:36:45.161Z,99782.67
2019-02-16T02:39:15.524Z,99780.64
2019-02-16T02:41:46.572Z,99784.62
2019-02-16T02:44:16.145Z,99786.66
2019-02-16T02:46:45.771Z,99792.28
2019-02-16T02:49:16.843Z,99790.78
2019-02-16T02:51:52.305Z,99793.97
2019-02-16T02:54:19.219Z,99788.89
2019-02-16T02:56:48.780Z,99791.48
2019-02-16T02:59:18.411Z,99797.17
2019-02-16T03:02:07.282Z,99802.23
2019-02-16T03:04:36.878Z,99809.75
2019-02-16T03:07:06.496Z,99811.95
2019-02-16T03:09:36.166Z,99814.80
2019-02-16T03:12:07.243Z,99816.00
2019-02-16T03:14:36.812Z,99814.25
2019-02-16T03:17:06.468Z,99810.83
2019-02-16T03:19:36.040Z,99803.85
2019-02-16T03:22:26.414Z,99796.60
2019-02-16T03:24:55.971Z,99795.66
2019-02-16T03:27:30.001Z,99794.77
2019-02-16T03:30:04.094Z,99793.27
2019-02-16T03:32:38.140Z,99793.26
2019-02-16T03:35:12.211Z,99798.14
2019-02-16T03:38:04.073Z,99694.30
2019-02-16T03:40:33.643Z,99805.01
2019-02-16T03:43:04.539Z,99796.14
2019-02-16T03:45:34.129Z,99798.16
2019-02-16T03:48:03.764Z,99810.95
2019-02-16T03:50:33.334Z,99813.44
2019-02-16T03:53:02.894Z,99819.48
2019-02-16T03:55:32.520Z,99813.88
2019-02-16T03:58:02.086Z,99804.09
2019-02-16T04:00:31.642Z,99808.13
2019-02-16T04:03:01.254Z,99807.14
2019-02-16T04:05:30.849Z,99800.61
2019-02-16T04:08:03.391Z,99697.94
2019-02-16T04:10:32.991Z,99801.53
2019-02-16T04:13:02.641Z,99803.42
2019-02-16T04:15:32.377Z,99810.86
2019-02-16T04:18:02.003Z,99812.22
2019-02-16T04:20:31.568Z,99810.41
2019-02-16T04:23:01.174Z,99804.40
2019-02-16T04:25:30.779Z,99804.19
2019-02-16T04:28:00.362Z,99796.14
2019-02-16T04:30:31.557Z,99798.03
2019-02-16T04:33:05.283Z,99800.07
2019-02-16T04:35:34.817Z,99795.44
2019-02-16T04:38:04.387Z,99787.25
2019-02-16T04:40:33.986Z,99783.73
2019-02-16T04:43:03.661Z,99781.20
2019-02-16T04:45:33.234Z,99780.66
2019-02-16T04:48:02.790Z,99773.36
2019-02-16T04:50:32.381Z,99772.72
2019-02-16T04:53:02.044Z,99776.50
2019-02-16T04:55:31.675Z,99781.04
2019-02-16T04:58:01.233Z,99790.34
2019-02-16T05:00:32.222Z,99794.41
2019-02-16T05:03:01.882Z,99786.86
2019-02-16T05:05:31.441Z,99787.81
2019-02-16T05:08:01.045Z,99794.06
2019-02-16T05:10:30.650Z,99788.75
2019-02-16T05:13:00.322Z,99795.94
2019-02-16T05:15:29.890Z,99792.64
2019-02-16T05:17:59.546Z,99779.86
2019-02-16T05:20:29.135Z,99774.68
2019-02-16T05:22:58.727Z,99780.40
2019-02-16T05:25:31.038Z,99778.24
2019-02-16T05:28:00.595Z,99773.05
2019-02-16T05:30:35.931Z,99775.06
2019-02-16T05:33:06.495Z,99779.25
2019-02-16T05:35:36.044Z,99776.44
2019-02-16T05:38:05.624Z,99779.86
2019-02-16T05:40:35.247Z,99773.19
2019-02-16T05:43:04.847Z,99784.50
2019-02-16T05:45:34.432Z,99778.34
2019-02-16T05:48:04.222Z,99788.16
2019-02-16T05:50:33.839Z,99786.89
2019-02-16T05:53:03.389Z,99782.45
2019-02-16T05:55:33.042Z,99782.80
2019-02-16T05:58:02.569Z,99774.20
2019-02-16T06:00:32.163Z,99775.15
2019-02-16T06:03:01.814Z,99768.59
2019-02-16T06:05:31.394Z,99768.73
2019-02-16T06:08:00.986Z,99770.95
2019-02-16T06:10:30.554Z,99779.09
2019-02-16T06:13:00.122Z,99781.26
2019-02-16T06:15:29.711Z,99784.91
2019-02-16T06:17:59.580Z,99787.13
2019-02-16T06:20:29.146Z,99790.70
2019-02-16T06:23:04.226Z,99785.47
2019-02-16T06:25:49.360Z,99712.61
2019-02-16T06:28:18.961Z,99789.29
2019-02-16T06:30:51.205Z,99796.94
2019-02-16T06:33:41.867Z,99800.17
2019-02-16T06:36:13.050Z,99807.27
2019-02-16T06:39:01.991Z,99814.58
2019-02-16T06:41:31.579Z,99810.97
2019-02-16T06:44:01.185Z,99813.58
2019-02-16T06:46:31.089Z,99807.48
2019-02-16T06:49:00.654Z,99812.88
2019-02-16T06:51:30.259Z,99814.95
2019-02-16T06:54:19.137Z,99821.16
2019-02-16T06:56:50.308Z,99820.82
2019-02-16T06:59:19.879Z,99826.91
2019-02-16T07:01:49.516Z,99827.56
2019-02-16T07:04:19.110Z,99839.45
2019-02-16T07:06:50.032Z,99841.50
2019-02-16T07:09:19.656Z,99842.63
2019-02-16T07:11:49.220Z,99838.51
2019-02-16T07:14:18.904Z,99838.38
2019-02-16T07:16:50.097Z,99831.89
2019-02-16T07:19:21.254Z,99829.68
2019-02-16T07:21:51.011Z,99807.30
2019-02-16T07:24:20.608Z,99800.41
2019-02-16T07:26:50.196Z,99793.61
2019-02-16T07:29:19.745Z,99787.20
2019-02-16T07:31:49.325Z,99782.86
2019-02-16T07:34:20.261Z,99774.13
2019-02-16T07:36:49.856Z,99769.28
2019-02-16T07:39:22.355Z,99773.66
2019-02-16T07:41:51.955Z,99767.41
2019-02-16T07:44:23.141Z,99763.61
2019-02-16T07:47:00.222Z,99761.37
2019-02-16T07:49:31.363Z,99761.09
2019-02-16T07:52:05.460Z,99754.00
2019-02-16T07:54:36.630Z,99755.08
2019-02-16T07:57:07.776Z,99747.61
2019-02-16T07:59:39.323Z,99740.95
2019-02-16T08:02:10.458Z,99735.60
2019-02-16T08:04:41.646Z,99741.06
2019-02-16T08:07:12.854Z,99732.93
2019-02-16T08:09:53.254Z,99721.39
2019-02-16T08:12:24.423Z,99720.18
2019-02-16T08:14:57.120Z,99716.33
2019-02-16T08:17:28.287Z,99717.03
2019-02-16T08:19:59.457Z,99718.78
2019-02-16T08:22:30.652Z,99715.27
2019-02-16T08:25:21.116Z,99710.75
2019-02-16T08:27:52.308Z,99708.53
2019-02-16T08:30:43.077Z,99699.94
2019-02-16T08:33:14.236Z,99709.88
2019-02-16T08:35:46.407Z,99741.90
2019-02-16T08:38:17.602Z,99756.27
2019-02-16T08:40:48.757Z,99725.59
2019-02-16T08:43:19.956Z,99708.99
2019-02-16T08:46:10.456Z,99696.07
2019-02-16T08:49:00.936Z,99696.13
2019-02-16T08:51:32.127Z,99692.77
2019-02-16T08:54:04.791Z,99696.20
2019-02-16T08:56:55.272Z,99686.33
2019-02-16T08:59:45.717Z,99687.77
2019-02-16T09:02:16.956Z,99681.34
2019-02-16T09:07:31.656Z,99668.07
2019-02-16T09:10:02.814Z,99667.55
2019-02-16T09:12:33.970Z,99698.95
2019-02-16T09:15:24.482Z,99682.95
2019-02-16T09:18:14.922Z,99663.34
2019-02-16T09:20:46.156Z,99655.52
2019-02-16T09:23:17.315Z,99653.36
2019-02-16T09:26:07.781Z,99644.13
2019-02-16T09:28:58.254Z,99640.80
2019-02-16T09:31:48.957Z,99641.52
2019-02-16T09:34:20.099Z,99643.27
2019-02-16T09:36:51.257Z,99639.56
2019-02-16T09:39:22.473Z,99648.02
2019-02-16T09:41:53.634Z,99639.31
2019-02-16T09:47:11.487Z,99644.61
2019-02-16T09:49:44.166Z,99645.33
2019-02-16T09:52:15.322Z,99641.99
2019-02-16T09:54:46.617Z,99637.98
2019-02-16T09:57:17.800Z,99648.97
2019-02-16T09:59:48.985Z,99653.73
2019-02-16T10:02:20.168Z,99668.19
2019-02-16T10:04:51.311Z,99646.27
2019-02-16T10:07:22.467Z,99648.97
2019-02-16T10:09:53.673Z,99649.44
2019-02-16T10:12:24.865Z,99640.66
2019-02-16T10:14:56.039Z,99643.22
2019-02-16T10:17:27.219Z,99642.55
2019-02-16T10:19:58.462Z,99638.88
2019-02-16T10:22:29.652Z,99657.50
2019-02-16T10:25:01.073Z,99658.74
2019-02-16T10:27:32.254Z,99640.77
2019-02-16T10:30:03.409Z,99644.02
2019-02-16T10:32:34.633Z,99647.36
2019-02-16T10:35:06.609Z,99644.52
2019-02-16T10:37:37.974Z,99648.84
2019-02-16T10:40:09.787Z,99656.94
2019-02-16T10:42:41.028Z,99649.00
2019-02-16T10:45:15.497Z,99643.56
2019-02-16T10:47:46.648Z,99648.61
2019-02-16T10:50:17.838Z,99640.02
2019-02-16T10:52:50.746Z,99639.48
2019-02-16T10:58:12.295Z,99635.09
2019-02-16T11:00:43.489Z,99632.09
2019-02-16T11:03:16.127Z,99636.62
2019-02-16T11:05:47.344Z,99647.84
2019-02-16T11:08:18.589Z,99631.48
2019-02-16T11:11:09.051Z,99640.67
2019-02-16T11:16:27.343Z,99641.23
2019-02-16T11:18:58.867Z,99639.16
2019-02-16T11:21:30.042Z,99637.69
2019-02-16T11:24:20.526Z,99622.23
2019-02-16T11:26:51.703Z,99612.23
2019-02-16T11:29:22.892Z,99619.13
2019-02-16T11:31:54.384Z,99601.34
2019-02-16T11:34:25.632Z,99612.67
2019-02-16T11:37:01.077Z,99603.88
2019-02-16T11:39:32.352Z,99592.34
2019-02-16T11:42:03.502Z,99596.65
2019-02-16T11:44:34.692Z,99600.51
2019-02-16T11:47:05.867Z,99606.31
2019-02-16T11:49:37.032Z,99599.85
2019-02-16T11:52:08.225Z,99593.98
2019-02-16T11:54:45.690Z,99588.92
2019-02-16T11:57:12.875Z,99575.19
2019-02-16T11:59:47.034Z,99574.53
2019-02-16T12:02:18.227Z,99576.05
2019-02-16T12:04:49.376Z,99572.41
2019-02-16T12:07:20.558Z,99571.50
2019-02-16T12:09:51.725Z,99564.91
2019-02-16T12:12:22.920Z,99569.27
2019-02-16T12:14:57.017Z,99568.96
2019-02-16T12:17:28.233Z,99556.98
2019-02-16T12:19:59.401Z,99564.09
2019-02-16T12:22:30.618Z,99559.81
2019-02-16T12:25:05.820Z,99562.77
2019-02-16T12:27:34.717Z,99567.59
2019-02-16T12:30:08.210Z,99549.63
2019-02-16T12:32:39.363Z,99547.70
2019-02-16T12:35:10.766Z,99537.78
2019-02-16T12:37:42.443Z,99532.66
2019-02-16T12:40:13.654Z,99539.65
2019-02-16T12:42:57.250Z,99532.84
2019-02-16T12:45:28.453Z,99528.73
2019-02-16T12:47:59.603Z,99521.36
2019-02-16T12:50:30.799Z,99513.29
2019-02-16T12:53:01.965Z,99513.67
2019-02-16T12:55:33.125Z,99509.94
2019-02-16T12:58:04.415Z,99509.05
2019-02-16T13:00:35.682Z,99506.72
2019-02-16T13:03:06.868Z,99516.84
2019-02-16T13:05:38.063Z,99515.20
2019-02-16T13:08:09.237Z,99504.63
2019-02-16T13:10:40.479Z,99508.50
2019-02-16T13:13:17.759Z,99502.32
2019-02-16T13:15:48.912Z,99499.49
2019-02-16T13:18:20.106Z,99498.73
2019-02-16T13:20:51.275Z,99500.16
2019-02-16T13:23:22.465Z,99498.23
2019-02-16T13:25:53.644Z,99491.37
2019-02-16T13:28:24.870Z,99497.83
2019-02-16T13:30:59.110Z,99495.87
2019-02-16T13:33:49.878Z,99498.52
2019-02-16T13:36:21.024Z,99501.08
2019-02-16T13:38:53.269Z,99504.19
2019-02-16T13:41:24.595Z,99496.95
2019-02-16T13:43:55.825Z,99496.66
2019-02-16T13:46:27.118Z,99490.41
2019-02-16T13:48:58.293Z,99496.92
2019-02-16T13:51:29.479Z,99498.96
2019-02-16T13:54:00.661Z,99504.34
2019-02-16T13:56:31.840Z,99503.30
2019-02-16T13:59:03.027Z,99504.48
2019-02-16T14:01:34.544Z,99502.58
2019-02-16T14:04:10.333Z,99496.63
2019-02-16T14:06:41.477Z,99496.34
2019-02-16T14:09:12.678Z,99494.41
2019-02-16T14:11:43.887Z,99500.84
2019-02-16T14:14:15.037Z,99493.66
2019-02-16T14:16:49.157Z,99497.16
2019-02-16T14:19:19.076Z,99496.30
2019-02-16T14:21:48.768Z,99498.33
2019-02-16T14:24:19.918Z,99502.62
2019-02-16T14:26:49.721Z,99501.92
2019-02-16T14:29:19.335Z,99499.48
2019-02-16T14:31:48.939Z,99499.64
2019-02-16T14:34:18.514Z,99509.77
2019-02-16T14:36:48.098Z,99507.16
2019-02-16T14:39:18.049Z,99509.52
2019-02-16T14:41:48.101Z,99502.23
2019-02-16T14:44:17.693Z,99502.05
2019-02-16T14:46:47.266Z,99499.34
2019-02-16T14:49:16.977Z,99494.02
2019-02-16T14:51:47.012Z,99491.98
2019-02-16T14:54:16.611Z,99489.73
2019-02-16T14:56:46.429Z,99495.62
2019-02-16T14:59:16.056Z,99491.38
2019-02-16T15:01:45.616Z,99493.27
2019-02-16T15:04:15.333Z,99490.08
2019-02-16T15:06:44.928Z,99497.28
2019-02-16T15:09:14.515Z,99495.16
2019-02-16T15:11:44.153Z,99493.05
2019-02-16T15:14:13.735Z,99497.77
2019-02-16T15:16:43.405Z,99501.42
2019-02-16T15:19:13.017Z,99499.70
2019-02-16T15:21:42.593Z,99500.77
2019-02-16T15:24:12.191Z,99492.32
2019-02-16T15:26:41.790Z,99492.81
2019-02-16T15:29:11.404Z,99487.80
2019-02-16T15:31:41.002Z,99492.27
2019-02-16T15:34:10.578Z,99490.37
2019-02-16T15:36:40.145Z,99492.74
2019-02-16T15:39:09.783Z,99491.99
2019-02-16T15:41:39.397Z,99494.47
2019-02-16T15:44:10.732Z,99494.81
2019-02-16T15:46:40.295Z,99493.74
2019-02-16T15:49:10.234Z,99493.02
2019-02-16T15:51:39.869Z,99491.37
2019-02-16T15:54:09.651Z,99492.23
2019-02-16T15:56:39.256Z,99497.64
2019-02-16T15:59:09.595Z,99493.95
2019-02-16T16:01:41.031Z,99494.97
2019-02-16T16:04:10.661Z,99503.18
2019-02-16T16:06:40.234Z,99500.23
2019-02-16T16:09:11.727Z,99497.16
2019-02-16T16:12:02.235Z,99496.73
2019-02-16T16:14:33.483Z,99498.33
2019-02-16T16:17:04.640Z,99494.75
2019-02-16T16:19:35.851Z,99498.48
2019-02-16T16:22:07.009Z,99498.98
2019-02-16T16:24:38.176Z,99496.50
2019-02-16T16:27:09.672Z,99507.37
2019-02-16T16:29:41.046Z,99507.61
2019-02-16T16:32:12.233Z,99510.03
2019-02-16T16:34:43.445Z,99510.50
2019-02-16T16:37:14.630Z,99516.69
2019-02-16T16:39:45.818Z,99519.83
2019-02-16T16:42:17.397Z,99521.77
2019-02-16T16:44:48.616Z,99527.44
2019-02-16T16:47:19.767Z,99529.90
2019-02-16T16:49:56.994Z,99524.63
2019-02-16T16:52:28.195Z,99535.67
2019-02-16T16:54:59.331Z,99538.13
2019-02-16T16:57:30.532Z,99535.14
2019-02-16T17:00:04.810Z,99544.18
2019-02-16T17:02:35.993Z,99542.63
2019-02-16T17:05:09.132Z,99539.13
2019-02-16T17:07:40.303Z,99545.65
2019-02-16T17:10:11.640Z,99544.63
2019-02-16T17:12:42.777Z,99542.55
2019-02-16T17:15:14.096Z,99539.14
2019-02-16T17:17:46.533Z,99543.20
2019-02-16T17:20:17.733Z,99547.77
2019-02-16T17:22:48.851Z,99547.30
2019-02-16T17:25:20.017Z,99546.44
2019-02-16T17:27:51.197Z,99548.27
2019-02-16T17:30:25.250Z,99555.36
2019-02-16T17:32:56.464Z,99558.36
2019-02-16T17:35:27.984Z,99557.13
2019-02-16T17:37:59.120Z,99558.64
2019-02-16T17:40:36.260Z,99559.16
2019-02-16T17:43:07.413Z,99563.61
2019-02-16T17:45:38.648Z,99563.38
2019-02-16T17:48:09.832Z,99565.39
2019-02-16T17:50:47.060Z,99572.47
2019-02-16T17:53:18.268Z,99577.50
2019-02-16T17:55:55.364Z,99576.06
2019-02-16T17:58:32.463Z,99573.06
2019-02-16T18:01:09.533Z,99570.07
2019-02-16T18:03:40.714Z,99573.06
2019-02-16T18:06:11.887Z,99575.17
2019-02-16T18:08:43.022Z,99573.99
2019-02-16T18:11:14.229Z,99570.95
2019-02-16T18:13:45.393Z,99573.31
2019-02-16T18:16:16.549Z,99576.20
2019-02-16T18:18:48.034Z,99573.83
2019-02-16T18:21:38.485Z,99582.23
2019-02-16T18:24:15.655Z,99578.93
2019-02-16T18:26:55.823Z,99582.37
2019-02-16T18:29:19.712Z,99579.83
2019-02-16T18:31:50.948Z,99585.14
2019-02-16T18:34:22.103Z,99582.73
2019-02-16T18:36:53.339Z,99580.25
2019-02-16T18:39:24.592Z,99580.17
2019-02-16T18:41:55.773Z,99575.33
2019-02-16T18:44:26.891Z,99571.81
2019-02-16T18:46:58.231Z,99563.86
2019-02-16T18:49:35.297Z,99566.45
2019-02-16T18:52:06.526Z,99564.97
2019-02-16T18:54:37.686Z,99564.13
2019-02-16T18:57:08.833Z,99562.98
2019-02-16T18:59:39.987Z,99557.51
2019-02-16T19:02:11.158Z,99558.09
2019-02-16T19:04:42.315Z,99555.98
2019-02-16T19:07:13.504Z,99556.75
2019-02-16T19:09:44.657Z,99554.37
2019-02-16T19:12:15.850Z,99553.28
2019-02-16T19:15:07.973Z,99550.24
2019-02-16T19:17:39.110Z,99547.16
2019-02-16T19:20:12.272Z,99551.00
2019-02-16T19:25:32.837Z,99553.94
2019-02-16T19:28:04.379Z,99553.66
2019-02-16T19:30:35.897Z,99556.80
2019-02-16T19:33:07.206Z,99548.80
2019-02-16T19:35:38.345Z,99556.06
2019-02-16T19:38:09.581Z,99550.26
2019-02-16T19:40:40.749Z,99553.02
2019-02-16T19:43:11.904Z,99550.31
2019-02-16T19:45:43.061Z,99551.60
2019-02-16T19:48:16.668Z,99549.94
2019-02-16T19:50:47.180Z,99550.05
2019-02-16T19:53:18.395Z,99551.91
2019-02-16T19:55:49.568Z,99548.30
2019-02-16T19:58:20.815Z,99551.97
2019-02-16T20:00:51.983Z,99553.17
2019-02-16T20:03:23.457Z,99554.09
2019-02-16T20:05:56.164Z,99556.33
2019-02-16T20:08:27.446Z,99557.70
2019-02-16T20:10:58.900Z,99553.14
2019-02-16T20:13:30.052Z,99556.08
2019-02-16T20:16:01.192Z,99550.91
2019-02-16T20:18:32.779Z,99550.36
2019-02-16T20:21:03.946Z,99554.11
2019-02-16T20:23:35.087Z,99543.78
2019-02-16T20:26:06.285Z,99544.96
2019-02-16T20:28:37.818Z,99545.27
2019-02-16T20:31:08.972Z,99541.50
2019-02-16T20:33:40.451Z,99539.13
2019-02-16T20:36:11.590Z,99534.81
2019-02-16T20:38:42.721Z,99539.33
2019-02-16T20:41:13.910Z,99545.19
2019-02-16T20:43:50.984Z,99545.03
2019-02-16T20:46:22.163Z,99545.91
2019-02-16T20:48:53.386Z,99547.95
2019-02-16T20:51:24.523Z,99547.78
2019-02-16T20:53:55.743Z,99548.73
2019-02-16T20:56:26.897Z,99551.87
2019-02-16T20:58:58.031Z,99550.48
2019-02-16T21:01:29.232Z,99557.06
2019-02-16T21:04:00.383Z,99557.95
2019-02-16T21:06:31.564Z,99556.11
2019-02-16T21:09:07.069Z,99560.08
2019-02-16T21:11:38.220Z,99565.04
2019-02-16T21:14:09.365Z,99561.22
2019-02-16T21:16:40.519Z,99563.39
2019-02-16T21:19:11.702Z,99562.10
2019-02-16T21:21:42.872Z,99564.29
2019-02-16T21:24:14.048Z,99564.73
2019-02-16T21:26:45.271Z,99573.34
2019-02-16T21:29:16.518Z,99578.14
2019-02-16T21:31:47.711Z,99582.62
2019-02-16T21:34:18.848Z,99578.48
2019-02-16T21:36:52.962Z,99577.16
2019-02-16T21:39:30.089Z,99577.59
2019-02-16T21:42:01.254Z,99571.14
2019-02-16T21:44:35.302Z,99566.94
2019-02-16T21:47:06.461Z,99570.40
2019-02-16T21:49:39.426Z,99567.32
2019-02-16T21:52:11.821Z,99568.06
2019-02-16T21:54:42.876Z,99571.34
2019-02-16T21:57:14.051Z,99570.80
2019-02-16T21:59:45.443Z,99569.77
2019-02-16T22:02:16.624Z,99572.19
2019-02-16T22:04:47.997Z,99576.00
2019-02-16T22:07:19.258Z,99568.25
2019-02-16T22:09:50.431Z,99574.28
2019-02-16T22:12:24.714Z,99568.84
2019-02-16T22:14:54.294Z,99566.55
2019-02-16T22:17:23.852Z,99561.53
2019-02-16T22:19:53.429Z,99564.06
2019-02-16T22:22:23.008Z,99561.30
2019-02-16T22:24:52.585Z,99562.55
2019-02-16T22:27:22.179Z,99567.91
2019-02-16T22:29:54.635Z,99563.92
2019-02-16T22:32:24.494Z,99565.98
2019-02-16T22:34:54.076Z,99562.33
2019-02-16T22:37:26.592Z,99560.35
2019-02-16T22:39:57.759Z,99562.45
2019-02-16T22:42:27.381Z,99564.45
2019-02-16T22:44:59.705Z,99562.14
2019-02-16T22:47:29.283Z,99560.80
2019-02-16T22:49:58.891Z,99558.34
2019-02-16T22:52:28.645Z,99559.25
2019-02-16T22:54:58.216Z,99559.86
2019-02-16T22:57:27.991Z,99556.91
2019-02-16T22:59:57.556Z,99564.09
2019-02-16T23:02:27.212Z,99555.09
2019-02-16T23:04:56.794Z,99555.24
2019-02-16T23:07:26.917Z,99561.26
2019-02-16T23:09:56.498Z,99558.35
2019-02-16T23:12:26.070Z,99556.54
2019-02-16T23:14:55.632Z,99561.34
2019-02-16T23:17:25.189Z,99560.35
2019-02-16T23:19:54.812Z,99559.95
2019-02-16T23:22:24.367Z,99553.84
2019-02-16T23:24:53.944Z,99556.69
2019-02-16T23:27:23.618Z,99554.83
2019-02-16T23:29:53.200Z,99557.64
2019-02-16T23:32:22.756Z,99553.95
2019-02-16T23:34:52.376Z,99552.42
2019-02-16T23:37:21.959Z,99549.52
2019-02-16T23:39:51.531Z,99550.17
2019-02-16T23:42:21.160Z,99551.83
2019-02-16T23:44:50.703Z,99555.77
2019-02-16T23:47:20.541Z,99551.31
2019-02-16T23:49:50.145Z,99547.52
2019-02-16T23:52:19.738Z,99547.98
2019-02-16T23:54:50.178Z,99549.34
2019-02-16T23:57:21.395Z,99550.61
2019-02-16T23:59:50.972Z,99550.87
